Terminal Aerodrome Forecast
Issued by NWS Jackson, KY

Home | Current Version | Previous Version | Text Only | Print | Product List | Glossary On
Versions: 1 2 3 4 5 6 7 8 9 10 11 12 13 14 15 16 17
545
FTUS43 KJKL 302320
TAFLOZ
TAF
KLOZ 302320Z 3100/3124 20015G25KT P6SM BKN100
      TEMPO 3103/3106 2SM TSRA BR OVC025CB
     FM310600 23009KT 3SM SHRA OVC015
     FM311000 23009KT 3SM SHRA OVC005
     FM311400 24009KT P6SM VCSH BKN035
     FM311800 25009G18KT P6SM OVC015=

USA.gov is the U.S. government's official web portal to all federal, state and local government web resources and services.